createdAt,value
2023-02-03T00:00:39.457Z,3.24
2023-02-03T00:03:08.090Z,4.31
2023-02-03T00:05:35.644Z,4.58
2023-02-03T00:08:05.252Z,4.80
2023-02-03T00:10:33.846Z,5.41
2023-02-03T00:13:00.777Z,5.25
2023-02-03T00:15:27.477Z,5.77
2023-02-03T00:17:54.137Z,5.56
2023-02-03T00:20:20.806Z,5.88
2023-02-03T00:22:47.537Z,5.67
2023-02-03T00:25:14.409Z,5.78
2023-02-03T00:27:42.035Z,6.42
2023-02-03T00:30:09.622Z,5.48
2023-02-03T00:32:37.248Z,5.20
2023-02-03T00:35:04.779Z,5.39
2023-02-03T00:37:34.453Z,5.06
2023-02-03T00:40:02.103Z,5.34
2023-02-03T00:42:29.636Z,5.38
2023-02-03T00:44:56.279Z,5.20
2023-02-03T00:47:22.951Z,5.08
2023-02-03T00:49:50.151Z,5.10
2023-02-03T00:52:16.868Z,5.52
2023-02-03T00:54:43.578Z,5.01
2023-02-03T00:57:10.242Z,5.33
2023-02-03T00:59:36.907Z,5.48
2023-02-03T01:02:03.611Z,5.49
2023-02-03T01:04:30.929Z,5.60
2023-02-03T01:06:57.948Z,5.61
2023-02-03T01:09:25.124Z,5.35
2023-02-03T01:11:52.755Z,5.70
2023-02-03T01:14:20.287Z,5.82
2023-02-03T01:16:46.973Z,5.49
2023-02-03T01:19:13.616Z,5.77
2023-02-03T01:21:40.259Z,6.05
2023-02-03T01:24:06.906Z,5.56
2023-02-03T01:26:33.623Z,5.48
2023-02-03T01:29:00.403Z,5.22
2023-02-03T01:31:28.844Z,5.03
2023-02-03T01:34:00.220Z,5.21
2023-02-03T01:36:43.402Z,5.27
2023-02-03T01:44:47.690Z,4.74
2023-02-03T01:47:20.288Z,4.34
2023-02-03T01:49:51.613Z,4.32
2023-02-03T01:52:18.496Z,3.98
2023-02-03T01:54:46.109Z,3.98
2023-02-03T01:57:16.715Z,3.60
2023-02-03T01:59:43.450Z,3.76
2023-02-03T02:02:10.133Z,3.85
2023-02-03T02:05:04.803Z,3.41
2023-02-03T02:07:32.288Z,3.63
2023-02-03T02:09:58.955Z,3.44
2023-02-03T02:12:25.613Z,3.27
2023-02-03T02:14:52.239Z,3.21
2023-02-03T02:17:48.957Z,3.39
2023-02-03T02:20:32.654Z,3.18
2023-02-03T02:23:46.868Z,2.99
2023-02-03T02:26:42.720Z,2.68
2023-02-03T02:29:27.153Z,2.78
2023-02-03T02:32:05.959Z,2.62
2023-02-03T02:35:00.402Z,2.79
2023-02-03T02:37:51.029Z,2.48
2023-02-03T02:40:37.927Z,2.53
2023-02-03T02:43:21.318Z,2.44
2023-02-03T02:45:52.882Z,2.37
2023-02-03T02:48:27.099Z,2.45
2023-02-03T02:50:55.299Z,2.30
2023-02-03T02:53:24.624Z,2.31
2023-02-03T02:55:51.789Z,2.51
2023-02-03T02:58:18.508Z,2.20
2023-02-03T03:00:45.155Z,2.20
2023-02-03T03:03:21.792Z,2.31
2023-02-03T03:06:30.753Z,2.27
2023-02-03T03:09:12.284Z,2.22
2023-02-03T03:11:45.516Z,2.32
2023-02-03T03:14:12.173Z,2.30
2023-02-03T03:16:39.262Z,2.15
2023-02-03T03:22:13.228Z,2.21
2023-02-03T03:24:50.980Z,2.25
2023-02-03T03:27:22.155Z,2.30
2023-02-03T03:29:51.495Z,2.17
2023-02-03T03:32:18.237Z,2.19
2023-02-03T03:34:44.896Z,2.47
2023-02-03T03:37:29.100Z,2.40
2023-02-03T03:39:57.623Z,2.49
2023-02-03T03:42:32.017Z,2.30
2023-02-03T03:45:18.554Z,2.40
2023-02-03T03:47:55.632Z,2.42
2023-02-03T03:50:26.007Z,2.53
2023-02-03T03:52:53.166Z,2.60
2023-02-03T03:55:19.846Z,2.91
2023-02-03T03:57:59.274Z,2.73
2023-02-03T04:00:26.764Z,2.80
2023-02-03T04:02:54.396Z,2.91
2023-02-03T04:05:22.374Z,3.04
2023-02-03T04:07:49.046Z,2.90
2023-02-03T04:10:38.359Z,3.16
2023-02-03T04:13:05.192Z,3.50
2023-02-03T04:15:31.887Z,3.57
2023-02-03T04:17:58.541Z,3.46
2023-02-03T04:20:29.472Z,3.73
2023-02-03T04:22:56.658Z,4.04
2023-02-03T04:25:29.707Z,4.15
2023-02-03T04:31:08.956Z,4.09
2023-02-03T04:33:49.911Z,4.27
2023-02-03T04:39:40.638Z,4.22
2023-02-03T04:47:41.526Z,4.03
2023-02-03T04:50:08.500Z,4.22
2023-02-03T04:52:35.183Z,4.14
2023-02-03T04:55:01.867Z,3.99
2023-02-03T04:57:28.495Z,3.86
2023-02-03T04:59:55.146Z,4.05
2023-02-03T05:02:22.439Z,4.00
2023-02-03T05:04:50.020Z,3.69
2023-02-03T05:07:17.001Z,3.32
2023-02-03T05:09:43.641Z,3.70
2023-02-03T05:12:10.323Z,3.48
2023-02-03T05:14:38.480Z,3.83
2023-02-03T05:17:05.158Z,3.88
2023-02-03T05:19:31.850Z,3.97
2023-02-03T05:22:02.350Z,3.71
2023-02-03T05:24:29.060Z,3.80
2023-02-03T05:26:55.826Z,3.62
2023-02-03T05:29:22.531Z,3.54
2023-02-03T05:31:50.204Z,3.39
2023-02-03T05:34:17.008Z,3.79
2023-02-03T05:36:43.646Z,3.37
2023-02-03T05:39:10.290Z,3.13
2023-02-03T05:41:36.964Z,2.65
2023-02-03T05:44:04.165Z,2.94
2023-02-03T05:46:30.806Z,2.52
2023-02-03T05:48:57.465Z,2.88
2023-02-03T05:51:24.125Z,3.28
2023-02-03T05:53:50.768Z,3.29
2023-02-03T05:56:17.568Z,3.43
2023-02-03T05:58:44.199Z,3.58
2023-02-03T06:01:10.832Z,3.32
2023-02-03T06:03:37.599Z,3.81
2023-02-03T06:06:04.247Z,3.61
2023-02-03T06:08:30.916Z,3.18
2023-02-03T06:10:58.689Z,2.62
2023-02-03T06:13:25.325Z,2.59
2023-02-03T06:15:51.947Z,2.69
2023-02-03T06:18:18.596Z,2.54
2023-02-03T06:20:45.662Z,2.86
2023-02-03T06:23:12.283Z,2.95
2023-02-03T06:25:39.009Z,3.04
2023-02-03T06:28:05.728Z,2.95
2023-02-03T06:30:32.448Z,2.88
2023-02-03T06:32:59.109Z,2.71
2023-02-03T06:35:25.762Z,2.95
2023-02-03T06:37:52.397Z,2.73
2023-02-03T06:40:19.028Z,2.86
2023-02-03T06:42:46.570Z,2.86
2023-02-03T06:45:13.331Z,3.15
2023-02-03T06:47:41.204Z,2.61
2023-02-03T06:50:08.407Z,2.83
2023-02-03T06:52:35.029Z,3.26
2023-02-03T06:55:01.687Z,3.05
2023-02-03T06:57:28.348Z,2.89
2023-02-03T06:59:55.022Z,3.12
2023-02-03T07:02:21.725Z,3.21
2023-02-03T07:04:48.391Z,3.30
2023-02-03T07:07:15.076Z,3.11
2023-02-03T07:09:42.196Z,3.00
2023-02-03T07:12:08.921Z,3.35
2023-02-03T07:14:35.559Z,3.69
2023-02-03T07:17:02.819Z,3.44
2023-02-03T07:19:29.470Z,3.33
2023-02-03T07:21:56.170Z,3.60
2023-02-03T07:24:22.818Z,3.72
2023-02-03T07:26:49.428Z,3.62
2023-02-03T07:29:16.091Z,3.45
2023-02-03T07:31:42.829Z,3.80
2023-02-03T07:34:09.536Z,3.72
2023-02-03T07:36:36.182Z,3.41
2023-02-03T07:39:02.928Z,3.49
2023-02-03T07:41:29.576Z,3.45
2023-02-03T07:43:56.216Z,3.41
2023-02-03T07:46:22.871Z,3.82
2023-02-03T07:48:49.905Z,3.79
2023-02-03T07:51:16.553Z,3.46
2023-02-03T07:53:43.213Z,3.78
2023-02-03T07:56:09.882Z,3.96
2023-02-03T07:58:36.516Z,3.74
2023-02-03T08:01:12.875Z,3.79
2023-02-03T08:03:40.049Z,3.74
2023-02-03T08:06:07.064Z,3.44
2023-02-03T08:08:33.681Z,3.60
2023-02-03T08:11:00.306Z,3.84
2023-02-03T08:13:26.937Z,3.60
2023-02-03T08:15:53.568Z,3.74
2023-02-03T08:18:20.182Z,3.59
2023-02-03T08:20:47.409Z,3.49
2023-02-03T08:23:14.059Z,3.75
2023-02-03T08:25:40.689Z,3.24
2023-02-03T08:28:07.595Z,3.45
2023-02-03T08:30:34.324Z,3.63
2023-02-03T08:33:00.999Z,3.77
2023-02-03T08:35:27.670Z,3.70
2023-02-03T08:37:54.326Z,3.06
2023-02-03T08:40:20.944Z,3.00
2023-02-03T08:42:47.596Z,2.87
2023-02-03T08:45:14.253Z,2.98
2023-02-03T08:47:40.952Z,3.00
2023-02-03T08:50:08.054Z,2.74
2023-02-03T08:52:34.721Z,2.79
2023-02-03T08:55:01.392Z,2.67
2023-02-03T08:57:28.041Z,2.72
2023-02-03T08:59:54.656Z,2.72
2023-02-03T09:02:21.338Z,2.76
2023-02-03T09:04:48.006Z,2.51
2023-02-03T09:07:14.698Z,2.40
2023-02-03T09:09:41.326Z,2.63
2023-02-03T09:12:08.095Z,2.61
2023-02-03T09:14:35.072Z,2.74
2023-02-03T09:17:02.088Z,2.66
2023-02-03T09:19:28.843Z,2.42
2023-02-03T09:21:55.491Z,2.84
2023-02-03T09:24:22.215Z,2.51
2023-02-03T09:26:48.888Z,2.41
2023-02-03T09:29:15.517Z,2.35
2023-02-03T09:31:42.183Z,2.64
2023-02-03T09:34:09.101Z,2.42
2023-02-03T09:36:35.825Z,2.39
2023-02-03T09:39:02.505Z,2.49
2023-02-03T09:41:54.163Z,2.36
2023-02-03T09:44:44.260Z,2.13
2023-02-03T09:47:20.139Z,2.19
2023-02-03T09:49:57.106Z,2.30
2023-02-03T09:52:26.060Z,2.22
2023-02-03T09:54:55.466Z,2.49
2023-02-03T09:57:24.105Z,2.43
2023-02-03T09:59:50.776Z,2.89
2023-02-03T10:02:40.013Z,2.60
2023-02-03T10:05:18.425Z,2.03
2023-02-03T10:08:20.111Z,2.41
2023-02-03T10:11:15.166Z,2.47
2023-02-03T10:14:03.367Z,2.26
2023-02-03T10:16:48.797Z,4.05
2023-02-03T10:19:24.486Z,5.17
2023-02-03T10:21:58.582Z,4.87
2023-02-03T10:24:42.320Z,3.60
2023-02-03T10:27:16.361Z,3.60
2023-02-03T10:29:43.064Z,3.90
2023-02-03T10:32:10.672Z,4.36
2023-02-03T10:34:37.403Z,4.57
2023-02-03T10:37:16.068Z,4.55
2023-02-03T10:39:49.774Z,4.74
2023-02-03T10:42:16.412Z,3.95
2023-02-03T10:44:48.111Z,3.04
2023-02-03T10:47:24.157Z,3.25
2023-02-03T10:49:51.211Z,3.31
2023-02-03T10:52:36.126Z,4.75
2023-02-03T10:55:07.110Z,3.52
2023-02-03T10:57:36.109Z,3.50
2023-02-03T11:00:23.356Z,4.33
2023-02-03T11:03:01.685Z,3.62
2023-02-03T11:05:28.381Z,3.01
2023-02-03T11:07:55.605Z,2.92
2023-02-03T11:10:29.085Z,2.92
2023-02-03T11:13:10.615Z,3.40
2023-02-03T11:15:37.260Z,3.35
2023-02-03T11:18:03.914Z,3.10
2023-02-03T11:20:30.877Z,3.40
2023-02-03T11:23:05.050Z,3.46
2023-02-03T11:25:32.525Z,3.46
2023-02-03T11:28:03.845Z,3.54
2023-02-03T11:30:30.952Z,4.14
2023-02-03T11:33:00.632Z,4.04
2023-02-03T11:35:28.150Z,3.95
2023-02-03T11:37:55.991Z,3.64
2023-02-03T11:40:29.606Z,3.39
2023-02-03T11:42:56.427Z,3.08
2023-02-03T11:45:39.707Z,3.39
2023-02-03T11:48:14.615Z,3.58
2023-02-03T11:50:53.622Z,3.78
2023-02-03T11:53:27.321Z,3.52
2023-02-03T11:56:09.074Z,3.24
2023-02-03T11:58:46.396Z,3.70
2023-02-03T12:01:25.542Z,3.18
2023-02-03T12:04:20.165Z,3.64
2023-02-03T12:07:01.759Z,3.16
2023-02-03T12:09:50.744Z,3.16
2023-02-03T12:12:41.509Z,1.87
2023-02-03T12:15:30.522Z,1.83
2023-02-03T12:18:07.137Z,2.20
2023-02-03T12:20:47.043Z,2.29
2023-02-03T12:23:25.419Z,3.10
2023-02-03T12:26:06.994Z,2.87
2023-02-03T12:29:04.674Z,3.53
2023-02-03T12:31:53.753Z,3.67
2023-02-03T12:34:31.801Z,3.93
2023-02-03T12:37:06.767Z,3.94
2023-02-03T12:39:46.922Z,3.87
2023-02-03T12:42:45.177Z,3.94
2023-02-03T12:45:14.167Z,3.53
2023-02-03T12:47:43.559Z,3.84
2023-02-03T12:50:17.159Z,3.33
2023-02-03T12:52:52.869Z,3.92
2023-02-03T12:55:28.397Z,3.58
2023-02-03T12:57:58.299Z,3.35
2023-02-03T13:00:37.520Z,3.09
2023-02-03T13:03:29.019Z,2.72
2023-02-03T13:06:04.573Z,2.55
2023-02-03T13:08:39.280Z,2.60
2023-02-03T13:11:15.521Z,2.32
2023-02-03T13:14:11.676Z,3.05
2023-02-03T13:16:40.732Z,3.23
2023-02-03T13:19:11.406Z,2.95
2023-02-03T13:21:38.106Z,3.16
2023-02-03T13:24:04.952Z,3.18
2023-02-03T13:26:50.192Z,3.24
2023-02-03T13:29:38.355Z,3.60
2023-02-03T13:32:14.230Z,3.69
2023-02-03T13:34:52.178Z,3.48
2023-02-03T13:37:37.284Z,3.47
2023-02-03T13:40:34.754Z,3.27
2023-02-03T13:43:03.549Z,3.04
2023-02-03T13:45:32.656Z,2.80
2023-02-03T13:48:08.144Z,2.67
2023-02-03T13:50:34.793Z,2.45
2023-02-03T13:53:06.541Z,2.22
2023-02-03T13:55:39.591Z,2.47
2023-02-03T13:58:08.051Z,2.36
2023-02-03T14:00:43.800Z,1.96
2023-02-03T14:03:26.086Z,1.98
2023-02-03T14:05:53.200Z,2.24
2023-02-03T14:08:25.558Z,2.34
2023-02-03T14:11:29.619Z,2.31
2023-02-03T14:14:08.263Z,2.35
2023-02-03T14:16:55.202Z,2.07
2023-02-03T14:19:21.982Z,2.34
2023-02-03T14:21:53.004Z,2.07
2023-02-03T14:24:19.628Z,2.49
2023-02-03T14:26:47.939Z,2.32
2023-02-03T14:29:34.798Z,2.69
2023-02-03T14:32:11.774Z,2.82
2023-02-03T14:34:45.289Z,3.13
2023-02-03T14:37:12.820Z,2.69
2023-02-03T14:39:56.530Z,2.70
2023-02-03T14:42:53.880Z,2.16
2023-02-03T14:45:47.359Z,2.02
2023-02-03T14:48:50.138Z,1.98
2023-02-03T14:51:19.600Z,2.42
2023-02-03T14:53:46.107Z,2.56
2023-02-03T14:56:31.297Z,2.52
2023-02-03T14:59:02.812Z,2.82
2023-02-03T15:01:35.529Z,3.59
2023-02-03T15:04:20.685Z,3.82
2023-02-03T15:06:49.018Z,3.51
2023-02-03T15:09:26.289Z,3.26
2023-02-03T15:11:52.937Z,3.51
2023-02-03T15:14:26.743Z,3.41
2023-02-03T15:17:10.593Z,3.54
2023-02-03T15:19:40.787Z,2.77
2023-02-03T15:22:24.639Z,3.15
2023-02-03T15:24:52.192Z,3.27
2023-02-03T15:27:27.099Z,3.34
2023-02-03T15:29:53.972Z,3.41
2023-02-03T15:32:29.002Z,3.12
2023-02-03T15:34:55.756Z,3.37
2023-02-03T15:37:47.715Z,3.24
2023-02-03T15:40:19.072Z,3.45
2023-02-03T15:42:54.578Z,3.43
2023-02-03T15:45:34.724Z,3.19
2023-02-03T15:48:17.367Z,3.23
2023-02-03T15:50:59.939Z,3.31
2023-02-03T15:53:45.294Z,3.23
2023-02-03T15:56:19.423Z,3.88
2023-02-03T15:58:46.067Z,3.46
2023-02-03T16:01:13.642Z,3.26
2023-02-03T16:03:44.185Z,3.53
2023-02-03T16:06:33.664Z,3.56
2023-02-03T16:09:00.335Z,3.54
2023-02-03T16:11:35.820Z,3.91
2023-02-03T16:14:05.659Z,3.74
2023-02-03T16:16:38.194Z,4.00
2023-02-03T16:19:06.724Z,3.87
2023-02-03T16:21:35.053Z,3.59
2023-02-03T16:24:02.832Z,3.51
2023-02-03T16:26:30.817Z,3.48
2023-02-03T16:29:09.571Z,3.31
2023-02-03T16:31:36.358Z,3.43
2023-02-03T16:34:15.588Z,3.58
2023-02-03T16:36:43.241Z,3.50
2023-02-03T16:39:11.471Z,3.67
2023-02-03T16:41:38.166Z,3.92
2023-02-03T16:44:04.871Z,3.56
2023-02-03T16:46:31.515Z,4.11
2023-02-03T16:48:58.181Z,3.65
2023-02-03T16:51:24.919Z,3.88
2023-02-03T16:53:51.631Z,5.16
2023-02-03T16:56:18.584Z,4.77
2023-02-03T16:58:45.219Z,5.03
2023-02-03T17:01:11.910Z,5.23
2023-02-03T17:03:38.687Z,5.65
2023-02-03T17:06:09.212Z,5.27
2023-02-03T17:08:35.896Z,4.98
2023-02-03T17:11:07.358Z,4.52
2023-02-03T17:13:34.061Z,4.51
2023-02-03T17:16:00.888Z,4.68
2023-02-03T17:18:27.628Z,4.32
2023-02-03T17:20:54.267Z,4.33
2023-02-03T17:23:20.936Z,5.19
2023-02-03T17:25:48.512Z,4.94
2023-02-03T17:28:15.236Z,4.76
2023-02-03T17:30:42.105Z,5.00
2023-02-03T17:33:08.946Z,6.67
2023-02-03T17:35:35.623Z,7.09
2023-02-03T17:38:02.265Z,6.82
2023-02-03T17:54:11.780Z,7.07
2023-02-03T17:56:38.458Z,7.84
2023-02-03T17:59:05.322Z,11.20
2023-02-03T18:01:32.073Z,16.99
2023-02-03T18:03:59.889Z,13.78
2023-02-03T18:06:27.583Z,14.14
2023-02-03T18:08:54.488Z,17.22
2023-02-03T18:11:21.744Z,16.45
2023-02-03T18:13:48.815Z,11.82
2023-02-03T18:16:20.555Z,11.32
2023-02-03T18:18:47.280Z,10.68
2023-02-03T18:21:15.070Z,11.68
2023-02-03T18:23:42.151Z,12.50
2023-02-03T18:26:10.044Z,13.11
2023-02-03T18:28:36.805Z,12.89
2023-02-03T18:31:05.191Z,11.72
2023-02-03T18:33:32.064Z,12.90
2023-02-03T18:35:58.897Z,10.97
2023-02-03T18:38:30.155Z,19.55
2023-02-03T18:40:56.928Z,48.91
2023-02-03T18:43:23.572Z,38.86
2023-02-03T18:45:50.242Z,27.81
2023-02-03T18:48:16.965Z,16.42
2023-02-03T18:50:43.801Z,13.23
2023-02-03T18:53:10.696Z,13.26
2023-02-03T18:55:41.624Z,13.11
2023-02-03T18:58:08.339Z,10.28
2023-02-03T19:00:35.025Z,10.34
2023-02-03T19:03:01.715Z,11.89
2023-02-03T19:05:28.373Z,11.95
2023-02-03T19:07:55.062Z,12.36
2023-02-03T19:10:21.708Z,10.14
2023-02-03T19:12:48.340Z,10.90
2023-02-03T19:15:15.122Z,10.45
2023-02-03T19:17:41.763Z,10.43
2023-02-03T19:20:09.029Z,10.22
2023-02-03T19:22:35.688Z,10.79
2023-02-03T19:25:02.450Z,12.35
2023-02-03T19:27:29.101Z,10.92
2023-02-03T19:29:56.729Z,10.43
2023-02-03T19:32:23.459Z,9.99
2023-02-03T19:34:50.110Z,10.72
2023-02-03T19:37:16.801Z,12.13
2023-02-03T19:39:43.436Z,12.91
2023-02-03T19:42:10.114Z,12.21
2023-02-03T19:44:36.801Z,10.97
2023-02-03T19:47:03.746Z,10.34
2023-02-03T19:49:30.582Z,10.24
2023-02-03T19:51:57.291Z,10.86
2023-02-03T19:54:24.390Z,9.50
2023-02-03T19:56:54.292Z,7.98
2023-02-03T19:59:20.957Z,6.15
2023-02-03T20:01:47.878Z,5.87
2023-02-03T20:04:14.575Z,5.27
2023-02-03T20:06:41.251Z,4.99
2023-02-03T20:09:07.919Z,5.84
2023-02-03T20:11:34.537Z,5.50
2023-02-03T20:14:01.154Z,5.39
2023-02-03T20:16:27.844Z,5.26
2023-02-03T20:18:54.552Z,5.54
2023-02-03T20:21:21.187Z,5.58
2023-02-03T20:23:47.813Z,5.49
2023-02-03T20:26:14.494Z,5.72
2023-02-03T20:28:41.156Z,5.97
2023-02-03T20:31:08.027Z,5.43
2023-02-03T20:33:34.750Z,5.08
2023-02-03T20:36:01.381Z,4.60
2023-02-03T20:38:28.051Z,4.41
2023-02-03T20:40:54.733Z,4.32
2023-02-03T20:43:23.384Z,5.72
2023-02-03T20:45:50.104Z,5.69
2023-02-03T20:48:17.352Z,7.36
2023-02-03T20:50:44.467Z,7.94
2023-02-03T20:53:21.120Z,7.41
2023-02-03T20:55:48.085Z,5.38
2023-02-03T20:58:21.650Z,4.92
2023-02-03T21:00:48.331Z,4.70
2023-02-03T21:03:15.485Z,3.96
2023-02-03T21:05:43.085Z,4.02
2023-02-03T21:08:14.458Z,4.30
2023-02-03T21:10:41.077Z,4.48
2023-02-03T21:13:23.100Z,4.43
2023-02-03T21:15:50.840Z,3.81
2023-02-03T21:18:52.611Z,3.66
2023-02-03T21:21:45.214Z,3.51
2023-02-03T21:24:27.719Z,3.60
2023-02-03T21:26:54.416Z,3.83
2023-02-03T21:29:23.744Z,3.52
2023-02-03T21:31:50.441Z,3.43
2023-02-03T21:34:32.894Z,3.06
2023-02-03T21:37:07.799Z,2.80
2023-02-03T21:39:34.506Z,2.94
2023-02-03T21:42:23.467Z,3.08
2023-02-03T21:44:50.101Z,2.99
2023-02-03T21:47:18.084Z,2.71
2023-02-03T21:49:44.733Z,3.33
2023-02-03T21:52:14.505Z,3.72
2023-02-03T21:54:41.590Z,3.94
2023-02-03T21:57:12.767Z,4.42
2023-02-03T21:59:39.910Z,4.48
2023-02-03T22:02:40.300Z,4.23
2023-02-03T22:05:15.284Z,4.51
2023-02-03T22:07:42.025Z,4.07
2023-02-03T22:10:09.044Z,3.59
2023-02-03T22:12:35.721Z,3.30
2023-02-03T22:15:02.349Z,3.16
2023-02-03T22:17:29.008Z,3.53
2023-02-03T22:19:55.734Z,3.50
2023-02-03T22:22:22.362Z,3.76
2023-02-03T22:24:49.139Z,4.61
2023-02-03T22:27:15.767Z,4.61
2023-02-03T22:29:42.484Z,4.08
2023-02-03T22:32:09.132Z,4.32
2023-02-03T22:34:35.796Z,4.15
2023-02-03T22:37:02.439Z,4.17
2023-02-03T22:39:29.274Z,4.13
2023-02-03T22:41:55.900Z,4.49
2023-02-03T22:44:22.534Z,4.42
2023-02-03T22:46:49.208Z,4.52
2023-02-03T22:49:17.851Z,4.30
2023-02-03T22:51:45.437Z,3.66
2023-02-03T22:54:13.036Z,3.75
2023-02-03T22:56:40.870Z,3.71
2023-02-03T22:59:07.528Z,4.03
2023-02-03T23:01:34.811Z,4.06
2023-02-03T23:04:02.424Z,4.41
2023-02-03T23:06:31.015Z,4.04
2023-02-03T23:08:58.832Z,4.63
2023-02-03T23:11:26.221Z,4.70
2023-02-03T23:13:53.840Z,4.99
2023-02-03T23:16:21.417Z,3.84
2023-02-03T23:18:48.160Z,3.93
2023-02-03T23:21:14.829Z,3.18
2023-02-03T23:23:43.196Z,3.33
2023-02-03T23:26:10.780Z,3.01
2023-02-03T23:28:38.386Z,2.98
2023-02-03T23:31:06.122Z,2.95
2023-02-03T23:33:33.580Z,2.90
2023-02-03T23:36:01.170Z,2.89
2023-02-03T23:38:28.626Z,2.93
2023-02-03T23:40:56.363Z,3.18
2023-02-03T23:43:23.023Z,3.31
2023-02-03T23:45:49.776Z,3.08
2023-02-03T23:48:18.147Z,3.47
2023-02-03T23:50:45.736Z,2.98
2023-02-03T23:53:13.342Z,3.00
2023-02-03T23:55:40.929Z,3.01
2023-02-03T23:58:09.508Z,2.71
